Time;durP1;ratioP1;P1;durP2;ratioP2;P2;SDS_P1;SDS_P2;PMS_P1;PMS_P2;Temp;Humidity;BMP_temperature;BMP_pressure;BME280_temperature;BME280_humidity;BME280_pressure;Samples;Min_cycle;Max_cycle;Signal;HPM_P1;HPM_P2
2021/07/12 00:00:46;;;;;;;8.57;5.63;;;;;;;;;;5017812;28;20457;-46
2021/07/12 00:03:12;;;;;;;9.13;4.65;;;;;;;;;;5017888;28;21484;-44
2021/07/12 00:05:41;;;;;;;8.63;5.32;;;;;;;;;;5018173;28;20590;-45
2021/07/12 00:08:07;;;;;;;11.95;5.68;;;;;;;;;;5018434;28;20157;-46
2021/07/12 00:10:34;;;;;;;10.27;4.93;;;;;;;;;;5017602;28;20520;-45
2021/07/12 00:13:00;;;;;;;7.78;5.35;;;;;;;;;;5017796;28;20637;-43
2021/07/12 00:15:27;;;;;;;8.98;5.05;;;;;;;;;;5017587;28;20037;-48
2021/07/12 00:17:53;;;;;;;8.55;4.95;;;;;;;;;;5017710;28;20025;-47
2021/07/12 00:20:19;;;;;;;11.07;5.80;;;;;;;;;;5018070;28;20163;-44
2021/07/12 00:22:46;;;;;;;10.90;5.20;;;;;;;;;;5017613;28;20443;-45
2021/07/12 00:25:12;;;;;;;19.17;14.25;;;;;;;;;;5017776;28;20094;-48
2021/07/12 00:27:39;;;;;;;21.38;10.40;;;;;;;;;;5017701;28;20029;-43
2021/07/12 00:30:06;;;;;;;23.80;10.93;;;;;;;;;;5017831;28;20028;-43
2021/07/12 00:32:32;;;;;;;18.42;8.52;;;;;;;;;;5031278;28;20473;-46
2021/07/12 00:34:59;;;;;;;14.95;9.65;;;;;;;;;;5033250;28;20034;-45
2021/07/12 00:37:25;;;;;;;17.35;10.77;;;;;;;;;;5033079;28;20363;-46
2021/07/12 00:39:51;;;;;;;16.48;7.28;;;;;;;;;;5033084;28;20024;-46
2021/07/12 00:42:17;;;;;;;21.50;12.63;;;;;;;;;;5032819;28;20072;-49
2021/07/12 00:44:43;;;;;;;22.42;10.00;;;;;;;;;;5032858;28;20070;-49
2021/07/12 00:47:09;;;;;;;17.02;10.48;;;;;;;;;;5033140;28;20445;-48
2021/07/12 00:49:36;;;;;;;11.18;7.32;;;;;;;;;;5032987;28;20109;-46
2021/07/12 00:52:02;;;;;;;11.85;7.93;;;;;;;;;;5032862;28;20021;-44
2021/07/12 00:54:29;;;;;;;8.95;6.05;;;;;;;;;;5032853;28;20025;-47
2021/07/12 00:56:55;;;;;;;11.82;7.32;;;;;;;;;;5032700;28;20462;-46
2021/07/12 00:59:22;;;;;;;10.38;5.65;;;;;;;;;;5032864;28;20029;-44
2021/07/12 01:01:48;;;;;;;12.25;5.53;;;;;;;;;;5032931;28;20029;-45
2021/07/12 01:04:14;;;;;;;14.40;5.65;;;;;;;;;;5032747;28;20095;-49
2021/07/12 01:06:40;;;;;;;7.82;5.57;;;;;;;;;;5032938;28;20033;-50
2021/07/12 01:09:06;;;;;;;13.90;4.82;;;;;;;;;;5033441;28;20105;-48
2021/07/12 01:11:32;;;;;;;8.85;5.65;;;;;;;;;;5036668;28;20037;-49
2021/07/12 01:14:17;;;;;;;13.30;5.65;;;;;;;;;;5036471;28;20428;-44
2021/07/12 01:16:49;;;;;;;12.40;7.22;;;;;;;;;;5036463;28;20489;-46
2021/07/12 01:19:33;;;;;;;10.82;8.23;;;;;;;;;;5036251;28;20029;-47
2021/07/12 01:22:05;;;;;;;9.63;6.13;;;;;;;;;;5036178;28;20381;-44
2021/07/12 01:25:10;;;;;;;29.40;20.25;;;;;;;;;;5036209;28;20034;-44
2021/07/12 01:28:02;;;;;;;22.55;15.23;;;;;;;;;;5036027;28;20045;-44
2021/07/12 01:30:51;;;;;;;17.42;8.10;;;;;;;;;;5036312;28;20025;-45
2021/07/12 01:33:21;;;;;;;8.60;5.27;;;;;;;;;;5014519;28;20042;-47
2021/07/12 01:35:57;;;;;;;10.45;5.07;;;;;;;;;;5014636;28;20114;-43
2021/07/12 01:38:35;;;;;;;8.10;4.88;;;;;;;;;;5014105;28;20487;-43
2021/07/12 01:41:05;;;;;;;11.38;5.70;;;;;;;;;;5014010;28;20033;-52
2021/07/12 01:43:40;;;;;;;10.80;5.40;;;;;;;;;;5013981;28;20072;-51
2021/07/12 01:46:11;;;;;;;9.70;6.72;;;;;;;;;;5014011;28;20049;-47
2021/07/12 01:48:49;;;;;;;10.25;6.50;;;;;;;;;;5014001;28;20042;-43
2021/07/12 01:51:16;;;;;;;13.20;6.90;;;;;;;;;;5013842;28;20084;-45
2021/07/12 01:53:42;;;;;;;6.72;5.90;;;;;;;;;;5013915;28;20113;-44
2021/07/12 01:56:23;;;;;;;11.38;6.15;;;;;;;;;;5013971;28;20033;-44
2021/07/12 01:58:55;;;;;;;11.93;6.75;;;;;;;;;;5013879;28;20022;-48
2021/07/12 02:01:22;;;;;;;9.68;6.03;;;;;;;;;;5014128;28;20566;-49
2021/07/12 02:03:48;;;;;;;8.43;6.30;;;;;;;;;;5013778;28;20050;-48
2021/07/12 02:06:14;;;;;;;8.52;6.25;;;;;;;;;;5013690;28;20025;-49
2021/07/12 02:08:50;;;;;;;12.40;6.55;;;;;;;;;;5013741;28;20109;-43
2021/07/12 02:11:17;;;;;;;11.35;6.50;;;;;;;;;;5033823;28;20478;-44
2021/07/12 02:13:50;;;;;;;8.93;7.00;;;;;;;;;;5034144;28;20367;-47
2021/07/12 02:16:17;;;;;;;8.40;6.68;;;;;;;;;;5035329;28;20589;-44
2021/07/12 02:18:44;;;;;;;13.18;7.22;;;;;;;;;;5035422;28;20025;-43
2021/07/12 02:21:11;;;;;;;10.25;6.28;;;;;;;;;;5034962;28;20022;-48
2021/07/12 02:23:38;;;;;;;9.18;6.47;;;;;;;;;;5035225;28;20150;-44
2021/07/12 02:26:05;;;;;;;8.77;6.32;;;;;;;;;;5035193;28;20026;-43
2021/07/12 02:28:31;;;;;;;9.27;7.18;;;;;;;;;;5035279;28;20022;-44
2021/07/12 02:30:58;;;;;;;8.63;6.47;;;;;;;;;;5035067;28;20028;-45
2021/07/12 02:33:24;;;;;;;14.55;6.80;;;;;;;;;;5035085;28;20014;-49
2021/07/12 02:35:51;;;;;;;8.88;6.53;;;;;;;;;;5035265;28;20036;-43
2021/07/12 02:38:17;;;;;;;16.63;7.25;;;;;;;;;;5035140;28;20490;-43
2021/07/12 02:40:46;;;;;;;10.88;7.80;;;;;;;;;;5035200;28;20079;-47
2021/07/12 02:43:13;;;;;;;13.52;6.70;;;;;;;;;;5035022;28;20071;-49
2021/07/12 02:45:39;;;;;;;7.47;6.30;;;;;;;;;;5033709;28;20045;-44
2021/07/12 02:48:07;;;;;;;8.82;6.57;;;;;;;;;;5034593;28;20038;-44
2021/07/12 02:50:34;;;;;;;14.73;6.55;;;;;;;;;;5034839;28;20064;-47
2021/07/12 02:53:16;;;;;;;11.68;7.15;;;;;;;;;;5034690;28;20100;-44
2021/07/12 02:55:43;;;;;;;12.43;6.32;;;;;;;;;;5034860;28;20383;-44
2021/07/12 02:58:09;;;;;;;11.85;6.75;;;;;;;;;;5034432;28;20018;-43
2021/07/12 03:00:35;;;;;;;11.93;6.55;;;;;;;;;;5034951;28;20021;-43
2021/07/12 03:03:01;;;;;;;9.43;7.28;;;;;;;;;;5034962;28;20041;-43
2021/07/12 03:05:27;;;;;;;10.88;6.85;;;;;;;;;;5034632;28;20049;-43
2021/07/12 03:08:22;;;;;;;8.50;6.32;;;;;;;;;;5034621;28;20017;-43
2021/07/12 03:10:52;;;;;;;9.60;6.13;;;;;;;;;;5012677;28;20048;-43
2021/07/12 03:13:42;;;;;;;10.65;6.40;;;;;;;;;;5012452;28;20088;-44
2021/07/12 03:16:08;;;;;;;9.10;6.45;;;;;;;;;;5004899;28;20050;-43
2021/07/12 03:19:00;;;;;;;11.93;7.07;;;;;;;;;;5012379;28;20567;-43
2021/07/12 03:21:27;;;;;;;10.85;7.10;;;;;;;;;;5009801;28;20122;-44
2021/07/12 03:23:55;;;;;;;12.95;6.80;;;;;;;;;;5012308;28;20085;-43
2021/07/12 03:26:22;;;;;;;9.15;7.32;;;;;;;;;;5012485;28;20022;-43
2021/07/12 03:28:49;;;;;;;12.00;7.70;;;;;;;;;;5012387;28;20118;-43
2021/07/12 03:31:18;;;;;;;12.15;7.07;;;;;;;;;;5012200;28;20022;-43
2021/07/12 03:33:45;;;;;;;13.27;7.57;;;;;;;;;;5011913;28;20084;-43
2021/07/12 03:36:11;;;;;;;9.40;6.80;;;;;;;;;;5012316;28;20072;-43
2021/07/12 03:38:37;;;;;;;8.07;6.43;;;;;;;;;;5012137;28;20026;-43
2021/07/12 03:41:05;;;;;;;7.50;6.25;;;;;;;;;;5012012;28;20498;-42
2021/07/12 03:43:31;;;;;;;7.80;6.47;;;;;;;;;;5012043;28;20034;-43
2021/07/12 03:45:59;;;;;;;9.32;6.65;;;;;;;;;;5011983;28;20137;-43
2021/07/12 03:48:57;;;;;;;10.82;6.60;;;;;;;;;;5033945;28;20029;-43
2021/07/12 03:51:24;;;;;;;13.20;6.70;;;;;;;;;;5011941;28;20065;-44
2021/07/12 03:53:50;;;;;;;8.82;6.18;;;;;;;;;;5011897;28;20077;-43
2021/07/12 03:56:17;;;;;;;8.82;6.85;;;;;;;;;;5011858;28;20565;-43
2021/07/12 03:58:43;;;;;;;7.90;6.32;;;;;;;;;;5011787;28;20088;-43
2021/07/12 04:01:10;;;;;;;8.48;6.20;;;;;;;;;;5011789;28;20030;-43
2021/07/12 04:03:36;;;;;;;11.27;6.25;;;;;;;;;;5011787;28;20049;-43
2021/07/12 04:06:03;;;;;;;13.80;7.90;;;;;;;;;;5011710;28;20034;-43
2021/07/12 04:08:29;;;;;;;12.82;7.32;;;;;;;;;;5011738;28;20038;-46
2021/07/12 04:10:55;;;;;;;7.47;6.18;;;;;;;;;;5011650;28;20418;-50
2021/07/12 04:13:21;;;;;;;12.68;6.57;;;;;;;;;;5011592;28;20038;-44
2021/07/12 04:15:47;;;;;;;13.40;7.10;;;;;;;;;;5011490;28;20568;-50
2021/07/12 04:18:14;;;;;;;11.05;6.68;;;;;;;;;;5011645;28;20034;-44
2021/07/12 04:20:41;;;;;;;11.18;7.32;;;;;;;;;;5011588;28;20034;-44
2021/07/12 04:23:08;;;;;;;8.85;5.97;;;;;;;;;;5011686;28;20133;-43
2021/07/12 04:25:34;;;;;;;12.60;6.53;;;;;;;;;;5011450;28;20105;-43
2021/07/12 04:28:00;;;;;;;11.93;6.55;;;;;;;;;;5031828;28;20116;-49
2021/07/12 04:30:26;;;;;;;17.75;6.43;;;;;;;;;;5033282;28;20063;-44
2021/07/12 04:32:52;;;;;;;10.05;6.95;;;;;;;;;;5033199;28;20056;-46
2021/07/12 04:35:18;;;;;;;9.00;6.65;;;;;;;;;;5033322;28;20030;-44
2021/07/12 04:37:44;;;;;;;14.82;6.60;;;;;;;;;;5033366;28;20067;-44
2021/07/12 04:40:10;;;;;;;8.30;5.65;;;;;;;;;;5033114;28;20117;-45
2021/07/12 04:42:37;;;;;;;12.50;7.80;;;;;;;;;;5032997;28;20061;-51
2021/07/12 04:45:04;;;;;;;11.77;6.70;;;;;;;;;;5036634;28;20073;-44
2021/07/12 04:47:30;;;;;;;34.13;24.42;;;;;;;;;;5037253;28;20057;-47
2021/07/12 04:49:56;;;;;;;17.45;12.55;;;;;;;;;;5052047;28;20037;-45
2021/07/12 04:52:22;;;;;;;15.15;10.55;;;;;;;;;;5036945;28;20418;-47
2021/07/12 04:54:49;;;;;;;17.65;9.27;;;;;;;;;;5037180;28;20075;-45
2021/07/12 04:57:15;;;;;;;11.98;8.38;;;;;;;;;;5036909;28;20491;-44
2021/07/12 04:59:42;;;;;;;15.93;7.38;;;;;;;;;;5036810;28;20096;-44
2021/07/12 05:02:08;;;;;;;12.32;7.88;;;;;;;;;;5036882;28;20040;-48
2021/07/12 05:04:36;;;;;;;9.38;7.20;;;;;;;;;;5036767;28;20588;-47
2021/07/12 05:07:02;;;;;;;10.50;8.30;;;;;;;;;;5036777;28;20032;-46
2021/07/12 05:09:28;;;;;;;7.97;6.53;;;;;;;;;;5036860;28;20034;-48
2021/07/12 05:11:54;;;;;;;11.45;6.40;;;;;;;;;;5036897;28;20025;-45
2021/07/12 05:14:20;;;;;;;14.30;9.07;;;;;;;;;;5036539;28;20037;-44
2021/07/12 05:16:46;;;;;;;10.70;6.35;;;;;;;;;;5036783;28;20496;-43
2021/07/12 05:19:15;;;;;;;8.75;6.82;;;;;;;;;;5036675;28;20108;-49
2021/07/12 05:21:42;;;;;;;8.95;5.75;;;;;;;;;;5036364;28;20446;-48
2021/07/12 05:24:08;;;;;;;16.33;8.65;;;;;;;;;;5036537;28;20048;-49
2021/07/12 05:26:35;;;;;;;12.32;7.05;;;;;;;;;;5036369;28;20025;-43
2021/07/12 05:29:01;;;;;;;11.05;7.57;;;;;;;;;;5036412;28;20030;-47
2021/07/12 05:31:27;;;;;;;15.20;7.50;;;;;;;;;;5036251;28;20029;-45
2021/07/12 05:33:53;;;;;;;14.55;6.53;;;;;;;;;;5036263;28;20064;-48
2021/07/12 05:36:19;;;;;;;10.38;6.55;;;;;;;;;;5036166;28;20026;-44
2021/07/12 05:38:45;;;;;;;11.02;6.20;;;;;;;;;;5036093;28;20465;-44
2021/07/12 05:41:12;;;;;;;13.57;5.55;;;;;;;;;;5036046;28;20033;-48
2021/07/12 05:43:38;;;;;;;9.43;6.18;;;;;;;;;;5035977;28;20041;-50
2021/07/12 05:46:04;;;;;;;9.48;6.00;;;;;;;;;;5035970;28;20026;-44
2021/07/12 05:48:30;;;;;;;7.13;5.25;;;;;;;;;;5036090;28;20463;-45
2021/07/12 05:50:57;;;;;;;43.35;7.90;;;;;;;;;;5035838;28;20028;-47
2021/07/12 05:53:23;;;;;;;10.15;6.32;;;;;;;;;;5034502;28;20386;-47
2021/07/12 05:55:49;;;;;;;27.45;17.17;;;;;;;;;;5035148;28;20029;-47
2021/07/12 05:58:15;;;;;;;80.22;18.15;;;;;;;;;;5035885;28;20025;-43
2021/07/12 06:00:41;;;;;;;26.73;18.25;;;;;;;;;;5051179;28;20108;-43
2021/07/12 06:03:07;;;;;;;11.35;8.55;;;;;;;;;;5035563;28;20021;-48
2021/07/12 06:05:33;;;;;;;11.13;6.70;;;;;;;;;;5035877;28;20411;-44
2021/07/12 06:08:00;;;;;;;14.95;7.47;;;;;;;;;;5035774;28;20529;-49
2021/07/12 06:10:26;;;;;;;14.57;10.57;;;;;;;;;;5035396;28;20030;-48
2021/07/12 06:12:52;;;;;;;20.38;10.70;;;;;;;;;;5035564;28;20053;-49
2021/07/12 06:15:18;;;;;;;12.63;7.10;;;;;;;;;;5035339;28;20081;-50
2021/07/12 06:17:45;;;;;;;18.50;7.30;;;;;;;;;;5035426;28;20056;-43
2021/07/12 06:20:17;;;;;;;16.80;8.13;;;;;;;;;;5035531;28;20021;-42
2021/07/12 06:22:44;;;;;;;11.55;6.50;;;;;;;;;;5035334;28;20025;-43
2021/07/12 06:25:10;;;;;;;12.43;6.80;;;;;;;;;;5035172;28;20037;-44
2021/07/12 06:27:36;;;;;;;12.52;5.88;;;;;;;;;;5035241;28;20122;-44
2021/07/12 06:30:03;;;;;;;20.17;6.93;;;;;;;;;;5035264;28;20040;-45
2021/07/12 06:32:29;;;;;;;10.30;6.43;;;;;;;;;;5035176;28;20125;-44
2021/07/12 06:34:55;;;;;;;7.10;5.55;;;;;;;;;;5035098;28;20478;-42
2021/07/12 06:37:21;;;;;;;14.25;7.68;;;;;;;;;;5035079;28;20026;-42
2021/07/12 06:39:47;;;;;;;11.73;5.85;;;;;;;;;;5035009;28;20147;-49
2021/07/12 06:42:13;;;;;;;10.65;5.68;;;;;;;;;;5035030;28;20029;-43
2021/07/12 06:44:39;;;;;;;13.98;7.18;;;;;;;;;;5025508;28;20069;-44
2021/07/12 06:47:06;;;;;;;8.55;6.18;;;;;;;;;;5023390;28;20036;-43
2021/07/12 06:49:32;;;;;;;8.73;5.85;;;;;;;;;;5022803;28;20064;-47
2021/07/12 06:51:58;;;;;;;11.52;5.95;;;;;;;;;;5022650;28;20065;-47
2021/07/12 06:54:24;;;;;;;8.88;5.10;;;;;;;;;;5022766;28;20029;-43
2021/07/12 06:56:50;;;;;;;7.32;5.90;;;;;;;;;;5022718;28;20083;-47
2021/07/12 06:59:16;;;;;;;8.52;5.70;;;;;;;;;;5023630;28;20037;-45
2021/07/12 07:01:44;;;;;;;11.35;5.47;;;;;;;;;;5022666;28;20332;-45
2021/07/12 07:04:11;;;;;;;7.88;5.50;;;;;;;;;;5023499;28;20060;-47
2021/07/12 07:06:38;;;;;;;6.40;4.95;;;;;;;;;;5021238;28;20332;-49
2021/07/12 07:09:04;;;;;;;10.13;5.45;;;;;;;;;;5022232;28;20032;-48
2021/07/12 07:11:31;;;;;;;8.07;5.60;;;;;;;;;;5022403;28;20497;-46
2021/07/12 07:13:57;;;;;;;8.23;5.95;;;;;;;;;;5022104;28;20080;-44
2021/07/12 07:16:24;;;;;;;6.38;5.30;;;;;;;;;;5021974;28;20307;-47
2021/07/12 07:18:50;;;;;;;7.13;5.47;;;;;;;;;;5023431;28;21672;-46
2021/07/12 07:21:16;;;;;;;7.47;5.07;;;;;;;;;;5022020;28;20267;-46
2021/07/12 07:23:43;;;;;;;6.75;5.60;;;;;;;;;;5023171;28;20033;-47
2021/07/12 07:26:10;;;;;;;7.65;5.68;;;;;;;;;;5021992;28;20029;-43
2021/07/12 07:28:37;;;;;;;8.50;5.45;;;;;;;;;;5022085;28;20022;-45
2021/07/12 07:31:03;;;;;;;6.65;5.05;;;;;;;;;;5022555;28;20025;-45
2021/07/12 07:33:29;;;;;;;6.93;5.53;;;;;;;;;;5022428;28;20017;-46
2021/07/12 07:35:56;;;;;;;9.70;5.90;;;;;;;;;;5021691;28;20040;-43
2021/07/12 07:38:22;;;;;;;8.77;6.75;;;;;;;;;;5021819;28;20033;-42
2021/07/12 07:40:48;;;;;;;13.95;5.78;;;;;;;;;;5021867;28;20358;-48
2021/07/12 07:43:14;;;;;;;15.23;6.05;;;;;;;;;;5022614;28;20037;-49
2021/07/12 07:45:41;;;;;;;8.38;5.47;;;;;;;;;;5021692;28;20144;-42
2021/07/12 07:48:07;;;;;;;7.55;5.63;;;;;;;;;;5023039;28;20111;-47
2021/07/12 07:50:37;;;;;;;7.13;5.25;;;;;;;;;;5033681;28;20071;-42
2021/07/12 07:53:04;;;;;;;27.95;18.67;;;;;;;;;;5038869;28;20020;-41
2021/07/12 07:55:30;;;;;;;29.92;24.63;;;;;;;;;;5052886;28;20029;-42
2021/07/12 07:57:57;;;;;;;19.77;10.98;;;;;;;;;;5052976;28;20041;-42
2021/07/12 08:00:23;;;;;;;13.38;8.93;;;;;;;;;;5052908;28;20096;-42
2021/07/12 08:02:50;;;;;;;11.40;8.85;;;;;;;;;;5052970;28;20020;-41
2021/07/12 08:05:17;;;;;;;6.30;5.40;;;;;;;;;;5052710;28;20039;-41
2021/07/12 08:07:43;;;;;;;12.82;6.88;;;;;;;;;;5053045;28;20017;-45
2021/07/12 08:10:11;;;;;;;7.22;5.38;;;;;;;;;;5052609;28;20100;-43
2021/07/12 08:12:37;;;;;;;11.75;6.25;;;;;;;;;;5052646;28;20013;-43
2021/07/12 08:15:10;;;;;;;9.32;6.20;;;;;;;;;;5052413;28;20045;-42
2021/07/12 08:17:40;;;;;;;8.68;6.38;;;;;;;;;;5053030;28;20035;-41
2021/07/12 08:20:07;;;;;;;11.60;5.32;;;;;;;;;;5052512;28;20461;-42
2021/07/12 08:22:33;;;;;;;13.25;9.30;;;;;;;;;;5052168;28;20033;-41
2021/07/12 08:25:02;;;;;;;8.65;6.78;;;;;;;;;;5051837;28;20381;-41
2021/07/12 08:27:29;;;;;;;12.70;8.82;;;;;;;;;;5051867;28;20020;-42
2021/07/12 08:29:55;;;;;;;9.52;6.70;;;;;;;;;;5051419;28;20543;-43
2021/07/12 08:32:21;;;;;;;7.70;6.28;;;;;;;;;;5052663;28;20029;-42
2021/07/12 08:34:47;;;;;;;29.73;20.00;;;;;;;;;;5049759;28;20014;-42
2021/07/12 08:37:13;;;;;;;19.05;9.45;;;;;;;;;;5052529;28;20493;-42
2021/07/12 08:39:40;;;;;;;14.80;9.27;;;;;;;;;;5052341;28;20465;-49
2021/07/12 08:42:06;;;;;;;20.63;11.25;;;;;;;;;;5052555;28;20024;-52
2021/07/12 08:44:32;;;;;;;23.52;15.65;;;;;;;;;;5052288;28;20032;-52
2021/07/12 08:46:58;;;;;;;15.60;9.95;;;;;;;;;;5052356;28;20032;-54
2021/07/12 08:49:26;;;;;;;29.95;14.52;;;;;;;;;;5052330;28;20453;-52
2021/07/12 08:51:52;;;;;;;9.50;5.95;;;;;;;;;;5052396;28;20365;-53
2021/07/12 08:54:18;;;;;;;60.67;52.13;;;;;;;;;;5052227;28;20104;-56
2021/07/12 08:56:44;;;;;;;26.55;19.40;;;;;;;;;;5052275;28;20021;-54
2021/07/12 08:59:30;;;;;;;21.52;18.45;;;;;;;;;;5051774;28;20032;-55
2021/07/12 09:02:03;;;;;;;27.15;19.67;;;;;;;;;;5033549;28;20021;-54
2021/07/12 09:04:29;;;;;;;32.42;26.15;;;;;;;;;;5032650;28;20037;-55
2021/07/12 09:07:01;;;;;;;32.40;19.38;;;;;;;;;;5032876;28;20033;-53
2021/07/12 09:09:28;;;;;;;59.15;44.20;;;;;;;;;;5032966;28;20086;-56
2021/07/12 09:11:54;;;;;;;48.15;32.15;;;;;;;;;;5033385;28;20021;-55
2021/07/12 09:14:20;;;;;;;26.13;18.13;;;;;;;;;;5032562;28;20389;-54
2021/07/12 09:16:54;;;;;;;12.05;9.95;;;;;;;;;;5032570;28;20031;-53
2021/07/12 09:19:21;;;;;;;8.57;5.80;;;;;;;;;;5030906;28;20402;-54
2021/07/12 09:21:51;;;;;;;10.75;6.07;;;;;;;;;;5022461;28;20488;-54
2021/07/12 09:24:19;;;;;;;13.13;11.70;;;;;;;;;;5020448;28;20041;-51
2021/07/12 09:26:55;;;;;;;19.00;12.73;;;;;;;;;;5021626;28;20021;-50
2021/07/12 09:29:47;;;;;;;9.52;7.55;;;;;;;;;;5020261;28;20021;-52
2021/07/12 09:32:18;;;;;;;7.25;6.03;;;;;;;;;;5023627;28;20045;-48
2021/07/12 09:34:46;;;;;;;8.27;6.82;;;;;;;;;;5024009;28;20116;-51
2021/07/12 09:37:13;;;;;;;7.20;6.28;;;;;;;;;;5023925;28;20595;-50
2021/07/12 09:39:43;;;;;;;7.28;4.70;;;;;;;;;;5024017;28;20029;-50
2021/07/12 09:42:10;;;;;;;7.40;6.28;;;;;;;;;;5025002;28;20057;-52
2021/07/12 09:44:39;;;;;;;8.18;5.07;;;;;;;;;;5023553;28;20154;-53
2021/07/12 09:47:09;;;;;;;6.40;4.35;;;;;;;;;;5023871;28;20025;-51
2021/07/12 09:49:37;;;;;;;;;;;;;;;;;;5024208;28;20551;-53
2021/07/12 09:52:05;;;;;;;26.73;8.07;;;;;;;;;;5023878;28;19909;-52
2021/07/12 09:54:33;;;;;;;11.02;4.32;;;;;;;;;;5023485;28;20035;-50
2021/07/12 09:57:26;;;;;;;7.22;4.07;;;;;;;;;;5023783;28;20136;-49
2021/07/12 09:59:52;;;;;;;22.45;14.48;;;;;;;;;;5022941;28;20079;-50
2021/07/12 10:02:29;;;;;;;20.85;13.63;;;;;;;;;;5024272;28;20033;-53
2021/07/12 10:04:59;;;;;;;17.80;10.38;;;;;;;;;;5023085;28;20045;-49
2021/07/12 10:07:25;;;;;;;10.10;6.47;;;;;;;;;;5023305;28;20025;-50
2021/07/12 10:09:52;;;;;;;18.50;10.70;;;;;;;;;;5023393;28;20033;-51
2021/07/12 10:12:20;;;;;;;8.95;5.00;;;;;;;;;;5023327;28;20114;-51
2021/07/12 10:14:46;;;;;;;8.45;3.90;;;;;;;;;;5024237;28;20047;-56
2021/07/12 10:17:13;;;;;;;8.23;6.05;;;;;;;;;;5023649;28;20044;-49
2021/07/12 10:19:40;;;;;;;11.10;4.55;;;;;;;;;;5023055;28;20380;-55
2021/07/12 10:22:07;;;;;;;8.52;4.43;;;;;;;;;;5023401;28;20029;-50
2021/07/12 10:24:37;;;;;;;6.93;4.10;;;;;;;;;;5023119;28;20046;-53
2021/07/12 10:27:04;;;;;;;6.88;3.72;;;;;;;;;;5023143;28;20021;-50
2021/07/12 10:29:33;;;;;;;7.22;4.15;;;;;;;;;;5024263;28;20033;-51
2021/07/12 10:32:01;;;;;;;6.55;3.90;;;;;;;;;;5023364;28;20025;-53
2021/07/12 10:34:35;;;;;;;5.68;4.15;;;;;;;;;;5022864;28;20028;-51
2021/07/12 10:37:21;;;;;;;5.97;4.40;;;;;;;;;;5023683;28;20032;-54
2021/07/12 10:39:59;;;;;;;9.00;5.93;;;;;;;;;;5019801;28;20040;-51
2021/07/12 10:42:44;;;;;;;6.88;4.70;;;;;;;;;;5022384;28;20123;-54
2021/07/12 10:45:13;;;;;;;6.20;3.90;;;;;;;;;;5023872;28;20051;-52
2021/07/12 10:47:44;;;;;;;10.55;3.83;;;;;;;;;;5024186;28;20059;-52
2021/07/12 10:50:29;;;;;;;10.30;4.32;;;;;;;;;;5022537;28;20401;-55
2021/07/12 10:52:55;;;;;;;5.72;3.60;;;;;;;;;;5022402;28;20029;-55
2021/07/12 10:55:28;;;;;;;6.47;4.10;;;;;;;;;;5022369;28;20533;-55
2021/07/12 10:58:14;;;;;;;5.65;4.30;;;;;;;;;;5023765;28;20025;-57
2021/07/12 11:00:40;;;;;;;8.43;4.93;;;;;;;;;;5023749;28;20029;-54
2021/07/12 11:03:06;;;;;;;6.22;4.32;;;;;;;;;;5022492;28;20862;-54
2021/07/12 11:05:50;;;;;;;10.10;8.15;;;;;;;;;;5022601;28;20031;-55
2021/07/12 11:08:34;;;;;;;5.80;4.38;;;;;;;;;;5023242;28;20017;-56
2021/07/12 11:11:00;;;;;;;9.02;4.28;;;;;;;;;;5023472;28;20018;-55
2021/07/12 11:13:46;;;;;;;5.40;4.90;;;;;;;;;;5021988;28;20780;-54
2021/07/12 11:16:16;;;;;;;5.40;4.30;;;;;;;;;;5022991;28;20452;-53
2021/07/12 11:18:42;;;;;;;6.10;4.03;;;;;;;;;;5021911;28;20032;-54
2021/07/12 11:21:14;;;;;;;6.43;4.20;;;;;;;;;;5022217;28;20039;-56
2021/07/12 11:23:40;;;;;;;6.07;4.32;;;;;;;;;;5023119;28;20033;-54
2021/07/12 11:26:23;;;;;;;8.65;4.43;;;;;;;;;;5023057;28;20028;-53
2021/07/12 11:28:53;;;;;;;5.20;3.80;;;;;;;;;;5022357;28;20029;-55
2021/07/12 11:31:37;;;;;;;6.10;3.88;;;;;;;;;;5022516;28;20060;-56
2021/07/12 11:34:04;;;;;;;9.48;4.05;;;;;;;;;;5022173;28;20909;-59
2021/07/12 11:36:30;;;;;;;6.35;4.25;;;;;;;;;;5021837;28;20032;-55
2021/07/12 11:38:56;;;;;;;7.30;3.75;;;;;;;;;;5021694;28;20029;-57
2021/07/12 11:41:23;;;;;;;9.57;5.25;;;;;;;;;;5021879;28;20431;-50
2021/07/12 11:44:07;;;;;;;5.47;3.88;;;;;;;;;;5021687;28;20338;-49
2021/07/12 11:46:33;;;;;;;5.00;4.25;;;;;;;;;;5023187;28;20039;-56
2021/07/12 11:49:14;;;;;;;12.50;6.70;;;;;;;;;;5022178;28;20430;-56
2021/07/12 11:51:40;;;;;;;10.30;4.60;;;;;;;;;;5023025;28;20032;-56
2021/07/12 11:54:14;;;;;;;4.45;3.90;;;;;;;;;;5021132;28;20584;-54
2021/07/12 11:56:42;;;;;;;11.15;4.50;;;;;;;;;;5021712;28;20026;-55
2021/07/12 11:59:08;;;;;;;7.70;4.10;;;;;;;;;;5021521;28;20032;-53
2021/07/12 12:01:34;;;;;;;5.85;4.20;;;;;;;;;;5022137;28;20029;-56
2021/07/12 12:04:04;;;;;;;5.22;4.30;;;;;;;;;;5021664;28;20389;-50
2021/07/12 12:06:31;;;;;;;7.32;4.55;;;;;;;;;;5021301;28;20029;-51
2021/07/12 12:09:00;;;;;;;8.18;4.50;;;;;;;;;;5021165;28;20113;-49
2021/07/12 12:11:30;;;;;;;7.47;4.15;;;;;;;;;;5021159;28;20032;-52
2021/07/12 12:13:58;;;;;;;6.75;3.70;;;;;;;;;;5021111;28;20029;-50
2021/07/12 12:16:28;;;;;;;4.72;3.97;;;;;;;;;;5021328;28;20065;-51
2021/07/12 12:18:55;;;;;;;7.60;4.30;;;;;;;;;;5020943;28;20029;-50
2021/07/12 12:21:25;;;;;;;4.68;3.85;;;;;;;;;;5021150;28;20646;-50
2021/07/12 12:23:53;;;;;;;37.63;24.77;;;;;;;;;;5021009;28;20037;-55
2021/07/12 12:26:26;;;;;;;10.10;6.38;;;;;;;;;;5021095;28;20029;-54
2021/07/12 12:28:54;;;;;;;5.35;4.05;;;;;;;;;;5021335;28;20112;-54
2021/07/12 12:31:26;;;;;;;5.07;4.30;;;;;;;;;;5022797;28;20432;-51
2021/07/12 12:34:00;;;;;;;9.35;3.83;;;;;;;;;;5026750;28;20032;-50
2021/07/12 12:36:28;;;;;;;12.20;4.88;;;;;;;;;;5026948;28;20104;-49
2021/07/12 12:38:59;;;;;;;7.30;3.88;;;;;;;;;;5026230;28;20021;-49
2021/07/12 12:41:26;;;;;;;4.38;3.80;;;;;;;;;;5024872;28;20116;-53
2021/07/12 12:44:05;;;;;;;6.97;4.15;;;;;;;;;;5025888;28;20029;-55
2021/07/12 12:46:32;;;;;;;5.27;4.20;;;;;;;;;;5025777;28;20025;-51
2021/07/12 12:48:58;;;;;;;5.93;4.10;;;;;;;;;;5028515;28;20356;-53
2021/07/12 12:51:47;;;;;;;5.35;3.83;;;;;;;;;;5026448;28;20090;-54
2021/07/12 12:54:13;;;;;;;;;;;;;;;;;;5012087;28;20466;-54
2021/07/12 12:56:53;;;;;;;74.28;56.47;;;;;;;;;;5011654;28;20726;-54
2021/07/12 12:59:19;;;;;;;;;;;;;;;;;;5011646;28;20102;-54
2021/07/12 13:01:46;;;;;;;17.30;12.73;;;;;;;;;;5010922;28;19913;-54
2021/07/12 13:04:19;;;;;;;4.93;4.32;;;;;;;;;;5011597;28;20033;-54
2021/07/12 13:06:53;;;;;;;5.90;4.35;;;;;;;;;;5014731;28;20069;-53
2021/07/12 13:09:33;;;;;;;8.55;4.95;;;;;;;;;;5015220;28;20327;-54
2021/07/12 13:11:59;;;;;;;;;;;;;;;;;;5016105;28;20037;-54
2021/07/12 13:14:31;;;;;;;15.13;11.80;;;;;;;;;;5015105;28;19920;-54
2021/07/12 13:17:07;;;;;;;21.92;15.88;;;;;;;;;;5015478;28;20106;-54
2021/07/12 13:19:34;;;;;;;13.63;11.25;;;;;;;;;;5015492;28;20030;-54
2021/07/12 13:22:00;;;;;;;12.15;8.18;;;;;;;;;;5015420;28;20143;-54
2021/07/12 13:24:50;;;;;;;9.73;6.88;;;;;;;;;;5014608;28;20516;-54
2021/07/12 13:27:31;;;;;;;6.00;4.57;;;;;;;;;;5015169;28;20026;-55
2021/07/12 13:29:58;;;;;;;6.60;4.50;;;;;;;;;;5015615;28;20108;-54
2021/07/12 13:32:24;;;;;;;8.82;4.70;;;;;;;;;;5023319;28;20030;-54
2021/07/12 13:34:50;;;;;;;4.82;4.40;;;;;;;;;;5024113;28;20052;-55
2021/07/12 13:37:16;;;;;;;5.65;4.78;;;;;;;;;;5023565;28;20022;-54
2021/07/12 13:39:42;;;;;;;6.43;4.60;;;;;;;;;;5024245;28;20140;-54
2021/07/12 13:42:09;;;;;;;7.57;5.70;;;;;;;;;;5024222;28;20048;-54
2021/07/12 13:44:35;;;;;;;5.65;4.50;;;;;;;;;;5023780;28;20427;-54
2021/07/12 13:47:01;;;;;;;6.65;4.72;;;;;;;;;;5023850;28;20033;-54
2021/07/12 13:49:27;;;;;;;8.18;4.75;;;;;;;;;;5025257;28;20105;-54
2021/07/12 13:51:53;;;;;;;6.57;4.15;;;;;;;;;;5023636;28;20373;-54
2021/07/12 13:54:19;;;;;;;4.97;4.53;;;;;;;;;;5023962;28;20021;-53
2021/07/12 13:56:45;;;;;;;5.10;4.57;;;;;;;;;;5023617;28;20056;-55
2021/07/12 13:59:11;;;;;;;9.30;5.05;;;;;;;;;;5023510;28;20029;-56
2021/07/12 14:01:37;;;;;;;5.97;4.40;;;;;;;;;;5024947;28;20832;-55
2021/07/12 14:04:03;;;;;;;5.82;4.22;;;;;;;;;;5023514;28;20051;-56
2021/07/12 14:06:29;;;;;;;9.57;4.75;;;;;;;;;;5024136;28;20370;-56
2021/07/12 14:08:55;;;;;;;5.88;5.28;;;;;;;;;;5023886;28;20036;-50
2021/07/12 14:11:22;;;;;;;7.63;4.93;;;;;;;;;;5023478;28;20017;-50
2021/07/12 14:13:49;;;;;;;11.02;6.22;;;;;;;;;;5023330;28;20038;-50
2021/07/12 14:16:17;;;;;;;7.80;4.50;;;;;;;;;;5022544;28;20695;-52
2021/07/12 14:18:43;;;;;;;7.20;4.57;;;;;;;;;;5023308;28;20646;-49
2021/07/12 14:21:14;;;;;;;5.00;4.07;;;;;;;;;;5023237;28;20049;-52
2021/07/12 14:23:41;;;;;;;11.15;5.10;;;;;;;;;;5023262;28;20064;-50
2021/07/12 14:26:07;;;;;;;5.15;4.18;;;;;;;;;;5023295;28;20029;-50
2021/07/12 14:28:33;;;;;;;5.80;4.47;;;;;;;;;;5022932;28;20030;-50
2021/07/12 14:30:59;;;;;;;5.30;4.40;;;;;;;;;;5022924;28;20417;-53
2021/07/12 14:33:26;;;;;;;11.48;4.50;;;;;;;;;;5022894;28;20026;-52
2021/07/12 14:35:52;;;;;;;5.47;4.75;;;;;;;;;;5023749;28;20040;-51
2021/07/12 14:38:18;;;;;;;4.95;4.45;;;;;;;;;;5022825;28;20021;-51
2021/07/12 14:40:44;;;;;;;6.80;4.50;;;;;;;;;;5022702;28;20128;-56
2021/07/12 14:43:10;;;;;;;5.63;4.82;;;;;;;;;;5022947;28;20041;-54
2021/07/12 14:45:40;;;;;;;5.25;4.38;;;;;;;;;;5022904;28;20495;-56